KPAM/PAM METAR and TAF weather

Enter ICAO airport designator
Station Type Date Time Source
KPAM METAR 2024/06/14 21:55 UTC NOAA

KPAM 142155Z AUTO 04011KT 10SM CLR 34/16 A2986 RMK AO2 SLP115 T03440162 $


Station Type Date Time Source
KPAM Decoded METAR 2024/06/14 21:55 UTC NOAA

Tyndall Air Force Base, FL, United States (KPAM) 30-04N 085-35W 13M
Jun 14, 2024 - 05:55 PM EDT / 2024.06.14 2155 UTC
Wind: from the NE (040 degrees) at 13 MPH (11 KT):0
Visibility: 10 mile(s):0
Sky conditions: clear
Temperature: 93.9 F (34.4 C)
Dew Point: 61.2 F (16.2 C)
Relative Humidity: 33%
Pressure (altimeter): 29.86 in. Hg (1011 hPa)
ob: KPAM 142155Z AUTO 04011KT 10SM CLR 34/16 A2986 RMK AO2 SLP115 T03440162
cycle: 22

Station Type Date Time Source
KPAM TAF 2024/06/14 22:39 UTC NOAA